createdAt,value
2019-06-27T00:01:00.000Z,99161
2019-06-27T00:06:00.000Z,99156
2019-06-27T00:11:00.000Z,99143
2019-06-27T00:16:00.000Z,99148
2019-06-27T00:21:00.000Z,99144
2019-06-27T00:26:00.000Z,99143
2019-06-27T00:31:00.000Z,99138
2019-06-27T00:36:00.000Z,99140
2019-06-27T00:41:00.000Z,99138
2019-06-27T00:47:00.000Z,99130
2019-06-27T00:52:00.000Z,99128
2019-06-27T00:57:00.000Z,99130
2019-06-27T01:02:00.000Z,99117
2019-06-27T01:07:00.000Z,99113
2019-06-27T01:12:00.000Z,99119
2019-06-27T01:17:00.000Z,99114
2019-06-27T01:22:00.000Z,99107
2019-06-27T01:27:00.000Z,99101
2019-06-27T01:32:00.000Z,99096
2019-06-27T01:37:00.000Z,99102
2019-06-27T01:42:00.000Z,99100
2019-06-27T01:47:00.000Z,99099
2019-06-27T01:52:00.000Z,99107
2019-06-27T01:57:00.000Z,99101
2019-06-27T02:02:00.000Z,99099
2019-06-27T02:07:00.000Z,99104
2019-06-27T02:12:00.000Z,99103
2019-06-27T02:17:00.000Z,99103
2019-06-27T02:22:00.000Z,99100
2019-06-27T02:27:00.000Z,99102
2019-06-27T02:33:00.000Z,99101
2019-06-27T02:38:00.000Z,99103
2019-06-27T02:43:00.000Z,99091
2019-06-27T02:48:00.000Z,99083
2019-06-27T02:53:00.000Z,99079
2019-06-27T02:58:00.000Z,99081
2019-06-27T03:03:00.000Z,99087
2019-06-27T03:08:00.000Z,99087
2019-06-27T03:13:00.000Z,99088
2019-06-27T03:18:00.000Z,99089
2019-06-27T03:23:00.000Z,99096
2019-06-27T03:28:00.000Z,99087
2019-06-27T03:33:00.000Z,99083
2019-06-27T03:38:00.000Z,99074
2019-06-27T03:43:00.000Z,99079
2019-06-27T03:48:00.000Z,99087
2019-06-27T03:53:00.000Z,99089
2019-06-27T03:58:00.000Z,99096
2019-06-27T04:04:00.000Z,99092
2019-06-27T04:09:00.000Z,99099
2019-06-27T04:14:00.000Z,99090
2019-06-27T04:19:00.000Z,99098
2019-06-27T04:24:00.000Z,99097
2019-06-27T04:29:00.000Z,99085
2019-06-27T04:34:00.000Z,99087
2019-06-27T04:39:00.000Z,99085
2019-06-27T04:44:00.000Z,99081
2019-06-27T04:49:00.000Z,99084
2019-06-27T04:54:00.000Z,99079
2019-06-27T04:59:00.000Z,99081
2019-06-27T05:04:00.000Z,99081
2019-06-27T05:09:00.000Z,99087
2019-06-27T05:14:00.000Z,99098
2019-06-27T05:19:00.000Z,99095
2019-06-27T05:24:00.000Z,99096
2019-06-27T05:29:00.000Z,99105
2019-06-27T05:35:00.000Z,99099
2019-06-27T05:40:00.000Z,99103
2019-06-27T05:45:00.000Z,99101
2019-06-27T05:50:00.000Z,99097
2019-06-27T05:55:00.000Z,99112
2019-06-27T06:00:00.000Z,99103
2019-06-27T06:05:00.000Z,99115
2019-06-27T06:10:00.000Z,99120
2019-06-27T06:15:00.000Z,99122
2019-06-27T06:20:00.000Z,99120
2019-06-27T06:25:00.000Z,99121
2019-06-27T06:30:00.000Z,99121
2019-06-27T06:35:00.000Z,99122
2019-06-27T06:40:00.000Z,99126
2019-06-27T06:45:00.000Z,99123
2019-06-27T06:50:00.000Z,99121
2019-06-27T06:55:00.000Z,99130
2019-06-27T07:00:00.000Z,99135
2019-06-27T07:06:00.000Z,99126
2019-06-27T07:11:00.000Z,99129
2019-06-27T07:16:00.000Z,99120
2019-06-27T07:21:00.000Z,99126
2019-06-27T07:26:00.000Z,99134
2019-06-27T07:31:00.000Z,99137
2019-06-27T07:36:00.000Z,99145
2019-06-27T07:41:00.000Z,99147
2019-06-27T07:46:00.000Z,99147
2019-06-27T07:51:00.000Z,99152
2019-06-27T07:56:00.000Z,99143
2019-06-27T08:01:00.000Z,99148
2019-06-27T08:06:00.000Z,99152
2019-06-27T08:11:00.000Z,99149
2019-06-27T08:16:00.000Z,99156
2019-06-27T08:21:00.000Z,99142
2019-06-27T08:26:00.000Z,99138
2019-06-27T08:31:00.000Z,99140
2019-06-27T08:36:00.000Z,99138
2019-06-27T08:41:00.000Z,99134
2019-06-27T08:46:00.000Z,99138
2019-06-27T08:51:00.000Z,99137
2019-06-27T08:56:00.000Z,99133
2019-06-27T09:01:00.000Z,99136
2019-06-27T09:07:00.000Z,99131
2019-06-27T09:12:00.000Z,99135
2019-06-27T09:17:00.000Z,99139
2019-06-27T09:22:00.000Z,99149
2019-06-27T09:27:00.000Z,99142
2019-06-27T09:32:00.000Z,99139
2019-06-27T09:37:00.000Z,99145
2019-06-27T09:42:00.000Z,99145
2019-06-27T09:47:00.000Z,99145
2019-06-27T09:52:00.000Z,99141
2019-06-27T09:57:00.000Z,99143
2019-06-27T10:02:00.000Z,99142
2019-06-27T10:07:00.000Z,99130
2019-06-27T10:12:00.000Z,99133
2019-06-27T10:17:00.000Z,99140
2019-06-27T10:22:00.000Z,99117
2019-06-27T10:27:00.000Z,99120
2019-06-27T10:32:00.000Z,99113
2019-06-27T10:38:00.000Z,99111
2019-06-27T10:43:00.000Z,99098
2019-06-27T10:48:00.000Z,99093
2019-06-27T10:53:00.000Z,99083
2019-06-27T10:58:00.000Z,99079
2019-06-27T11:03:00.000Z,99062
2019-06-27T11:08:00.000Z,99058
2019-06-27T11:13:00.000Z,99056
2019-06-27T11:18:00.000Z,99045
2019-06-27T11:23:00.000Z,99054
2019-06-27T11:28:00.000Z,99042
2019-06-27T11:33:00.000Z,99034
2019-06-27T11:38:00.000Z,99029
2019-06-27T11:43:00.000Z,99038
2019-06-27T11:48:00.000Z,99029
2019-06-27T11:53:00.000Z,99027
2019-06-27T11:58:00.000Z,99018
2019-06-27T12:03:00.000Z,98999
2019-06-27T12:08:00.000Z,99000
2019-06-27T12:13:00.000Z,98989
2019-06-27T12:18:00.000Z,98991
2019-06-27T12:23:00.000Z,98988
2019-06-27T12:28:00.000Z,98989
2019-06-27T12:33:00.000Z,98975
2019-06-27T12:39:00.000Z,98970
2019-06-27T12:44:00.000Z,98961
2019-06-27T12:49:00.000Z,98951
2019-06-27T12:54:00.000Z,98941
2019-06-27T12:59:00.000Z,98922
2019-06-27T13:04:00.000Z,98912
2019-06-27T13:09:00.000Z,98890
2019-06-27T13:14:00.000Z,98875
2019-06-27T13:19:00.000Z,98869
2019-06-27T13:24:00.000Z,98877
2019-06-27T13:29:00.000Z,98879
2019-06-27T13:34:00.000Z,98875
2019-06-27T13:39:00.000Z,98869
2019-06-27T13:44:00.000Z,98876
2019-06-27T13:49:00.000Z,98850
2019-06-27T13:54:00.000Z,98859
2019-06-27T13:59:00.000Z,98891
2019-06-27T14:04:00.000Z,98882
2019-06-27T14:09:00.000Z,98888
2019-06-27T14:14:00.000Z,98880
2019-06-27T14:20:00.000Z,98884
2019-06-27T14:25:00.000Z,98881
2019-06-27T14:30:00.000Z,98884
2019-06-27T14:35:00.000Z,98883
2019-06-27T14:40:00.000Z,98874
2019-06-27T14:45:00.000Z,98881
2019-06-27T14:50:00.000Z,98872
2019-06-27T14:55:00.000Z,98877
2019-06-27T15:00:00.000Z,98866
2019-06-27T15:05:00.000Z,98857
2019-06-27T15:10:00.000Z,98858
2019-06-27T15:15:00.000Z,98856
2019-06-27T15:20:00.000Z,98857
2019-06-27T15:25:00.000Z,98838
2019-06-27T15:30:00.000Z,98841
2019-06-27T15:35:00.000Z,98836
2019-06-27T15:40:00.000Z,98833
2019-06-27T15:45:00.000Z,98845
2019-06-27T15:50:00.000Z,98844
2019-06-27T15:55:00.000Z,98851
2019-06-27T16:00:00.000Z,98864
2019-06-27T16:05:00.000Z,98868
2019-06-27T16:11:00.000Z,98887
2019-06-27T16:16:00.000Z,98894
2019-06-27T16:21:00.000Z,98905
2019-06-27T16:26:00.000Z,98899
2019-06-27T16:31:00.000Z,98911
2019-06-27T16:36:00.000Z,98905
2019-06-27T16:41:00.000Z,98914
2019-06-27T16:46:00.000Z,98915
2019-06-27T16:51:00.000Z,98912
2019-06-27T16:56:00.000Z,98911
2019-06-27T17:01:00.000Z,98916
2019-06-27T17:06:00.000Z,98913
2019-06-27T17:11:00.000Z,98899
2019-06-27T17:16:00.000Z,98897
2019-06-27T17:21:00.000Z,98903
2019-06-27T17:26:00.000Z,98901
2019-06-27T17:31:00.000Z,98908
2019-06-27T17:36:00.000Z,98902
2019-06-27T17:41:00.000Z,98900
2019-06-27T17:46:00.000Z,98897
2019-06-27T17:52:00.000Z,98903
2019-06-27T17:57:00.000Z,98910
2019-06-27T18:02:00.000Z,98912
2019-06-27T18:07:00.000Z,98922
2019-06-27T18:12:00.000Z,98925
2019-06-27T18:17:00.000Z,98927
2019-06-27T18:22:00.000Z,98928
2019-06-27T18:27:00.000Z,98934
2019-06-27T18:32:00.000Z,98944
2019-06-27T18:37:00.000Z,98941
2019-06-27T18:42:00.000Z,98955
2019-06-27T18:47:00.000Z,98951
2019-06-27T18:52:00.000Z,98956
2019-06-27T18:57:00.000Z,98956
2019-06-27T19:02:00.000Z,98966
2019-06-27T19:07:00.000Z,98973
2019-06-27T19:12:00.000Z,98984
2019-06-27T19:17:00.000Z,98992
2019-06-27T19:22:00.000Z,99003
2019-06-27T19:27:00.000Z,99014
2019-06-27T19:32:00.000Z,99019
2019-06-27T19:37:00.000Z,99039
2019-06-27T19:43:00.000Z,99045
2019-06-27T19:48:00.000Z,99058
2019-06-27T19:53:00.000Z,99062
2019-06-27T19:58:00.000Z,99078
2019-06-27T20:03:00.000Z,99089
2019-06-27T20:08:00.000Z,99086
2019-06-27T20:13:00.000Z,99095
2019-06-27T20:18:00.000Z,99107
2019-06-27T20:23:00.000Z,99109
2019-06-27T20:28:00.000Z,99119
2019-06-27T20:33:00.000Z,99112
2019-06-27T20:38:00.000Z,99125
2019-06-27T20:43:00.000Z,99126
2019-06-27T20:48:00.000Z,99120
2019-06-27T20:53:00.000Z,99129
2019-06-27T20:58:00.000Z,99131
2019-06-27T21:03:00.000Z,99141
2019-06-27T21:08:00.000Z,99144
2019-06-27T21:13:00.000Z,99144
2019-06-27T21:18:00.000Z,99149
2019-06-27T21:23:00.000Z,99149
2019-06-27T21:28:00.000Z,99145
2019-06-27T21:33:00.000Z,99162
2019-06-27T21:38:00.000Z,99168
2019-06-27T21:44:00.000Z,99171
2019-06-27T21:49:00.000Z,99175
2019-06-27T21:54:00.000Z,99178
2019-06-27T21:59:00.000Z,99182
2019-06-27T22:04:00.000Z,99179
2019-06-27T22:09:00.000Z,99182
2019-06-27T22:14:00.000Z,99184
2019-06-27T22:19:00.000Z,99184
2019-06-27T22:24:00.000Z,99189
2019-06-27T22:29:00.000Z,99189
2019-06-27T22:34:00.000Z,99186
2019-06-27T22:39:00.000Z,99184
2019-06-27T22:44:00.000Z,99193
2019-06-27T22:49:00.000Z,99184
2019-06-27T22:54:00.000Z,99183
2019-06-27T22:59:00.000Z,99188
2019-06-27T23:04:00.000Z,99185
2019-06-27T23:09:00.000Z,99186
2019-06-27T23:14:00.000Z,99186
2019-06-27T23:19:00.000Z,99183
2019-06-27T23:24:00.000Z,99187
2019-06-27T23:30:00.000Z,99172
2019-06-27T23:35:00.000Z,99178
2019-06-27T23:40:00.000Z,99182
2019-06-27T23:45:00.000Z,99176
2019-06-27T23:50:00.000Z,99170
2019-06-27T23:55:00.000Z,99171
